Time;durP1;ratioP1;P1;durP2;ratioP2;P2;SDS_P1;SDS_P2;PMS_P1;PMS_P2;Temp;Humidity;BMP_temperature;BMP_pressure;BME280_temperature;BME280_humidity;BME280_pressure;Samples;Min_cycle;Max_cycle;Signal;HPM_P1;HPM_P2
2023/08/02 00:00:06;;;;;;;0.00;0.00;;;16.50;99.90;;;;;;5006652;28;20022;-84
2023/08/02 00:02:32;;;;;;;0.00;0.00;;;16.50;99.90;;;;;;5012149;28;20393;-88
2023/08/02 00:04:57;;;;;;;0.00;0.00;;;16.50;99.90;;;;;;5003648;28;20028;-88
2023/08/02 00:07:23;;;;;;;0.00;0.00;;;16.50;99.90;;;;;;5009111;28;20040;-83
2023/08/02 00:09:49;;;;;;;0.00;0.00;;;;;;;;;;4997441;28;20018;-87
2023/08/02 00:12:15;;;;;;;0.00;0.00;;;;;;;;;;5011888;28;20054;-87
2023/08/02 00:14:41;;;;;;;0.00;0.00;;;;;;;;;;5012508;28;20100;-88
2023/08/02 00:17:06;;;;;;;0.00;0.00;;;;;;;;;;5012781;28;20034;-89
2023/08/02 00:19:32;;;;;;;0.00;0.00;;;;;;;;;;5004833;28;20044;-88
2023/08/02 00:21:58;;;;;;;0.00;0.00;;;16.30;99.90;;;;;;5007513;28;20143;-88
2023/08/02 00:24:24;;;;;;;0.00;0.00;;;;;;;;;;5011536;28;20026;-85
2023/08/02 00:26:49;;;;;;;0.05;0.05;;;16.20;99.90;;;;;;5004182;28;20434;-88
2023/08/02 00:29:16;;;;;;;0.00;0.00;;;16.20;99.90;;;;;;5008314;28;20041;-86
2023/08/02 00:31:41;;;;;;;0.00;0.00;;;16.30;99.90;;;;;;5007294;28;20022;-88
2023/08/02 00:34:07;;;;;;;0.00;0.00;;;;;;;;;;5005388;28;20072;-87
2023/08/02 00:36:33;;;;;;;0.00;0.00;;;;;;;;;;5006689;28;20052;-87
2023/08/02 00:38:59;;;;;;;0.08;0.08;;;;;;;;;;5008951;28;20034;-87
2023/08/02 00:41:24;;;;;;;0.00;0.00;;;16.30;99.90;;;;;;5008745;28;20034;-87
2023/08/02 00:43:50;;;;;;;0.00;0.00;;;;;;;;;;5010583;28;20033;-88
2023/08/02 00:46:18;;;;;;;0.00;0.00;;;16.40;99.90;;;;;;5009857;28;20475;-90
2023/08/02 00:48:46;;;;;;;0.00;0.00;;;16.30;99.90;;;;;;5008238;28;20026;-88
2023/08/02 00:51:16;;;;;;;0.00;0.00;;;16.40;99.90;;;;;;5010523;28;20042;-88
2023/08/02 00:53:43;;;;;;;0.00;0.00;;;16.30;99.90;;;;;;5011631;28;20111;-87
2023/08/02 00:56:09;;;;;;;0.00;0.00;;;16.40;99.90;;;;;;5008714;28;20022;-85
2023/08/02 00:58:35;;;;;;;0.00;0.00;;;16.40;99.90;;;;;;5017760;28;20041;-87
2023/08/02 01:01:07;;;;;;;0.00;0.00;;;;;;;;;;5007444;28;20026;-87
2023/08/02 01:03:38;;;;;;;0.00;0.00;;;16.40;99.90;;;;;;5011374;28;20479;-88
2023/08/02 01:06:26;;;;;;;0.00;0.00;;;16.50;99.90;;;;;;5007201;28;20125;-87
2023/08/02 01:09:14;;;;;;;0.00;0.00;;;16.40;99.90;;;;;;5014046;28;20026;-87
2023/08/02 01:11:46;;;;;;;0.00;0.00;;;16.30;99.90;;;;;;5024556;28;20060;-87
2023/08/02 01:14:16;;;;;;;0.00;0.00;;;16.20;99.90;;;;;;5011326;28;20512;-87
2023/08/02 01:16:44;;;;;;;0.00;0.00;;;16.20;99.90;;;;;;5009527;28;20768;-89
2023/08/02 01:19:10;;;;;;;0.00;0.00;;;16.20;99.90;;;;;;5006162;28;20089;-89
2023/08/02 01:21:35;;;;;;;0.00;0.00;;;16.20;99.90;;;;;;5014073;28;20481;-88
2023/08/02 01:24:01;;;;;;;0.00;0.00;;;16.20;99.90;;;;;;5013432;28;20053;-85
2023/08/02 01:26:30;;;;;;;0.00;0.00;;;16.20;99.90;;;;;;5011454;28;20030;-85
2023/08/02 01:29:00;;;;;;;0.00;0.00;;;16.10;99.90;;;;;;5009755;28;20034;-88
2023/08/02 01:31:26;;;;;;;0.00;0.00;;;16.20;99.90;;;;;;5008678;28;20029;-84
2023/08/02 01:33:53;;;;;;;0.00;0.00;;;16.10;99.90;;;;;;5002514;28;20062;-86
2023/08/02 01:36:19;;;;;;;0.00;0.00;;;16.10;99.90;;;;;;5008051;28;20030;-85
2023/08/02 01:38:45;;;;;;;0.00;0.00;;;;;;;;;;5010264;28;20022;-88
2023/08/02 01:41:11;;;;;;;0.00;0.00;;;;;;;;;;5008091;28;20232;-88
2023/08/02 01:43:36;;;;;;;0.00;0.00;;;16.10;99.90;;;;;;5009423;28;20037;-87
2023/08/02 01:46:02;;;;;;;0.00;0.00;;;;;;;;;;5005415;28;20033;-90
2023/08/02 01:48:28;;;;;;;0.00;0.00;;;;;;;;;;5007694;28;20028;-88
2023/08/02 01:50:54;;;;;;;0.00;0.00;;;;;;;;;;5007278;28;20034;-88
2023/08/02 01:53:20;;;;;;;0.00;0.00;;;15.80;99.90;;;;;;5014723;28;20056;-87
2023/08/02 01:55:45;;;;;;;0.00;0.00;;;15.70;99.90;;;;;;5011215;28;20034;-88
2023/08/02 01:58:11;;;;;;;0.00;0.00;;;15.60;99.90;;;;;;5015053;28;20041;-89
2023/08/02 02:00:36;;;;;;;0.00;0.00;;;15.50;99.90;;;;;;5006858;28;20048;-87
2023/08/02 02:03:02;;;;;;;0.00;0.00;;;15.60;99.90;;;;;;5007112;28;20760;-87
2023/08/02 02:05:27;;;;;;;0.00;0.00;;;15.60;99.90;;;;;;5011266;28;20072;-87
2023/08/02 02:07:53;;;;;;;0.00;0.00;;;15.50;99.90;;;;;;5005776;28;20133;-86
2023/08/02 02:10:19;;;;;;;0.00;0.00;;;;;;;;;;5012121;28;20113;-87
2023/08/02 02:12:44;;;;;;;0.00;0.00;;;15.50;99.90;;;;;;5016580;28;20395;-86
2023/08/02 02:15:10;;;;;;;0.00;0.00;;;;;;;;;;5012787;28;20554;-87
2023/08/02 02:17:36;;;;;;;0.00;0.00;;;;;;;;;;5007188;28;20031;-87
2023/08/02 02:20:02;;;;;;;0.10;0.10;;;;;;;;;;5012580;28;20029;-87
2023/08/02 02:22:28;;;;;;;0.00;0.00;;;;;;;;;;5005388;28;20037;-88
2023/08/02 02:24:54;;;;;;;0.00;0.00;;;;;;;;;;5010916;28;20036;-86
2023/08/02 02:27:19;;;;;;;0.00;0.00;;;15.20;99.90;;;;;;5001939;28;20376;-86
2023/08/02 02:29:45;;;;;;;0.00;0.00;;;15.10;99.90;;;;;;5007638;28;20026;-87
2023/08/02 02:32:10;;;;;;;0.00;0.00;;;15.10;99.90;;;;;;5008684;28;20030;-88
2023/08/02 02:34:36;;;;;;;0.00;0.00;;;;;;;;;;5001717;28;20056;-86
2023/08/02 02:37:02;;;;;;;0.00;0.00;;;;;;;;;;5002759;28;20116;-88
2023/08/02 02:39:28;;;;;;;0.00;0.00;;;;;;;;;;5004409;28;20498;-83
2023/08/02 02:41:54;;;;;;;0.00;0.00;;;;;;;;;;5004827;28;20076;-86
2023/08/02 02:44:20;;;;;;;0.00;0.00;;;;;;;;;;5001123;28;20149;-87
2023/08/02 02:46:46;;;;;;;0.00;0.00;;;;;;;;;;5004536;28;20038;-86
2023/08/02 02:49:12;;;;;;;0.00;0.00;;;14.90;99.90;;;;;;5013537;28;20033;-86
2023/08/02 02:51:37;;;;;;;0.00;0.00;;;14.90;99.90;;;;;;5006678;28;20018;-87
2023/08/02 02:54:03;;;;;;;0.00;0.00;;;14.90;99.90;;;;;;5022508;28;20505;-87
2023/08/02 02:56:29;;;;;;;0.00;0.00;;;;;;;;;;5007374;28;20026;-84
2023/08/02 02:58:54;;;;;;;0.00;0.00;;;;;;;;;;5017879;28;20092;-87
2023/08/02 03:01:21;;;;;;;0.00;0.00;;;14.90;99.90;;;;;;5008643;28;20520;-86
2023/08/02 03:03:46;;;;;;;0.00;0.00;;;14.90;99.90;;;;;;5012867;28;20064;-86
2023/08/02 03:06:12;;;;;;;0.00;0.00;;;14.80;99.90;;;;;;5006498;28;20099;-87
2023/08/02 03:08:38;;;;;;;0.00;0.00;;;;;;;;;;5013335;28;20111;-87
2023/08/02 03:11:04;;;;;;;0.00;0.00;;;;;;;;;;5010351;28;20382;-88
2023/08/02 03:13:30;;;;;;;0.00;0.00;;;;;;;;;;5014553;28;20104;-88
2023/08/02 03:15:55;;;;;;;0.00;0.00;;;14.90;99.90;;;;;;5011340;28;20029;-88
2023/08/02 03:18:21;;;;;;;0.00;0.00;;;14.90;99.90;;;;;;5009093;28;20034;-87
2023/08/02 03:20:47;;;;;;;0.00;0.00;;;;;;;;;;5007677;28;20072;-87
2023/08/02 03:23:12;;;;;;;0.00;0.00;;;15.00;99.90;;;;;;5017822;28;20030;-87
2023/08/02 03:25:38;;;;;;;0.00;0.00;;;;;;;;;;5010192;28;20029;-88
2023/08/02 03:28:03;;;;;;;0.00;0.00;;;14.90;99.90;;;;;;5011421;28;20030;-87
2023/08/02 03:30:29;;;;;;;0.00;0.00;;;;;;;;;;5005781;28;20022;-84
2023/08/02 03:32:55;;;;;;;0.00;0.00;;;;;;;;;;5008071;28;20026;-88
2023/08/02 03:35:21;;;;;;;0.00;0.00;;;;;;;;;;5009288;28;20084;-87
2023/08/02 03:37:47;;;;;;;0.00;0.00;;;;;;;;;;5009117;28;20056;-88
2023/08/02 03:40:13;;;;;;;0.00;0.00;;;;;;;;;;5009206;28;20509;-87
2023/08/02 03:42:39;;;;;;;0.00;0.00;;;;;;;;;;5009810;28;20026;-87
2023/08/02 03:45:05;;;;;;;0.00;0.00;;;14.90;99.90;;;;;;5014640;28;20029;-85
2023/08/02 03:47:31;;;;;;;0.00;0.00;;;;;;;;;;5008960;28;20029;-89
2023/08/02 03:49:57;;;;;;;0.00;0.00;;;;;;;;;;5020575;28;20152;-87
2023/08/02 03:52:23;;;;;;;0.00;0.00;;;;;;;;;;5008538;28;20061;-88
2023/08/02 03:54:48;;;;;;;0.00;0.00;;;14.70;99.90;;;;;;5015763;28;20026;-87
2023/08/02 03:57:14;;;;;;;0.00;0.00;;;;;;;;;;5014271;28;20037;-85
2023/08/02 03:59:40;;;;;;;0.00;0.00;;;14.70;99.90;;;;;;5019221;28;20029;-88
2023/08/02 04:02:05;;;;;;;0.00;0.00;;;14.70;99.90;;;;;;5006706;28;20041;-87
2023/08/02 04:04:31;;;;;;;0.00;0.00;;;;;;;;;;5010043;28;20037;-87
2023/08/02 04:06:57;;;;;;;0.00;0.00;;;;;;;;;;5016097;28;20037;-87
2023/08/02 04:09:23;;;;;;;0.00;0.00;;;;;;;;;;5015878;28;20036;-87
2023/08/02 04:11:49;;;;;;;0.00;0.00;;;;;;;;;;5011743;28;20411;-87
2023/08/02 04:14:15;;;;;;;0.00;0.00;;;;;;;;;;5020686;28;20418;-88
2023/08/02 04:16:41;;;;;;;0.00;0.00;;;;;;;;;;5012795;28;20479;-88
2023/08/02 04:19:06;;;;;;;0.00;0.00;;;14.70;99.90;;;;;;5013516;28;20480;-88
2023/08/02 04:21:32;;;;;;;0.00;0.00;;;14.90;99.90;;;;;;5013409;28;20054;-87
2023/08/02 04:23:57;;;;;;;0.00;0.00;;;14.90;99.90;;;;;;5018681;28;20057;-89
2023/08/02 04:26:23;;;;;;;0.00;0.00;;;14.90;99.90;;;;;;5007948;28;20026;-88
2023/08/02 04:28:49;;;;;;;0.00;0.00;;;;;;;;;;5008813;28;20071;-88
2023/08/02 04:31:15;;;;;;;0.00;0.00;;;;;;;;;;5008264;28;20475;-87
2023/08/02 04:33:40;;;;;;;0.00;0.00;;;15.10;99.90;;;;;;5015297;28;20030;-86
2023/08/02 04:36:06;;;;;;;0.00;0.00;;;;;;;;;;5014112;28;20492;-86
2023/08/02 04:38:32;;;;;;;0.00;0.00;;;;;;;;;;5011683;28;20033;-89
2023/08/02 04:40:58;;;;;;;0.00;0.00;;;;;;;;;;5021314;28;20025;-88
2023/08/02 04:43:24;;;;;;;0.00;0.00;;;;;;;;;;5008541;28;20083;-89
2023/08/02 04:45:50;;;;;;;0.00;0.00;;;15.20;99.90;;;;;;5026232;28;20101;-88
2023/08/02 04:48:16;;;;;;;0.00;0.00;;;15.20;99.90;;;;;;5010085;28;20053;-89
2023/08/02 04:50:43;;;;;;;0.00;0.00;;;15.30;99.90;;;;;;5015357;28;20376;-89
2023/08/02 04:53:08;;;;;;;0.00;0.00;;;15.40;99.90;;;;;;5016583;28;20490;-88
2023/08/02 04:55:42;;;;;;;0.00;0.00;;;15.40;99.90;;;;;;5011439;28;20044;-88
2023/08/02 04:58:07;;;;;;;0.00;0.00;;;;;;;;;;5015109;28;20419;-87
2023/08/02 05:00:33;;;;;;;0.00;0.00;;;15.30;99.90;;;;;;5005269;28;20050;-90
2023/08/02 05:02:59;;;;;;;0.00;0.00;;;;;;;;;;5009512;28;20052;-88
2023/08/02 05:05:24;;;;;;;0.00;0.00;;;15.40;99.90;;;;;;5008779;28;20030;-88
2023/08/02 05:07:50;;;;;;;0.00;0.00;;;15.40;99.90;;;;;;5007747;28;20427;-89
2023/08/02 05:10:16;;;;;;;0.00;0.00;;;;;;;;;;5000437;28;20030;-89
2023/08/02 05:12:42;;;;;;;0.00;0.00;;;;;;;;;;5014386;28;20053;-89
2023/08/02 05:15:08;;;;;;;0.00;0.00;;;15.60;99.90;;;;;;5009464;28;20450;-87
2023/08/02 05:17:34;;;;;;;0.00;0.00;;;;;;;;;;5007341;28;20132;-87
2023/08/02 05:20:00;;;;;;;0.00;0.00;;;15.80;99.90;;;;;;5004507;28;20033;-89
2023/08/02 05:22:25;;;;;;;0.00;0.00;;;15.80;99.90;;;;;;5004316;28;20032;-86
2023/08/02 05:24:51;;;;;;;0.00;0.00;;;;;;;;;;5012151;28;20023;-88
2023/08/02 05:27:17;;;;;;;0.00;0.00;;;15.90;99.90;;;;;;5011622;28;20175;-88
2023/08/02 05:29:43;;;;;;;0.00;0.00;;;16.20;99.90;;;;;;5018657;28;20056;-87
2023/08/02 05:32:08;;;;;;;0.00;0.00;;;;;;;;;;5015986;28;20026;-88
2023/08/02 05:34:34;;;;;;;0.00;0.00;;;;;;;;;;5010587;28;20042;-85
2023/08/02 05:37:00;;;;;;;0.00;0.00;;;;;;;;;;5020883;28;20045;-86
2023/08/02 05:39:26;;;;;;;0.00;0.00;;;;;;;;;;5012680;28;20030;-88
2023/08/02 05:41:52;;;;;;;0.00;0.00;;;16.80;99.90;;;;;;5011123;28;20274;-88
2023/08/02 05:44:17;;;;;;;0.00;0.00;;;16.80;99.90;;;;;;5009843;28;20434;-88
2023/08/02 05:46:43;;;;;;;0.00;0.00;;;;;;;;;;5012539;28;20049;-88
2023/08/02 05:49:09;;;;;;;0.00;0.00;;;17.20;99.90;;;;;;5014115;28;20029;-87
2023/08/02 05:51:35;;;;;;;0.00;0.00;;;;;;;;;;5006251;28;20019;-88
2023/08/02 05:54:01;;;;;;;0.00;0.00;;;;;;;;;;5016830;28;20079;-88
2023/08/02 05:56:27;;;;;;;0.00;0.00;;;;;;;;;;5008515;28;20060;-88
2023/08/02 05:58:53;;;;;;;0.00;0.00;;;;;;;;;;5016415;28;20040;-88
2023/08/02 06:01:19;;;;;;;0.00;0.00;;;;;;;;;;5022214;28;20551;-88
2023/08/02 06:03:44;;;;;;;0.00;0.00;;;17.40;99.90;;;;;;5007848;28;20116;-87
2023/08/02 06:06:10;;;;;;;0.00;0.00;;;;;;;;;;5017369;28;20049;-89
2023/08/02 06:08:36;;;;;;;0.00;0.00;;;17.60;99.90;;;;;;5010205;28;20030;-87
2023/08/02 06:11:02;;;;;;;0.00;0.00;;;17.50;99.90;;;;;;5010533;28;20025;-88
2023/08/02 06:13:29;;;;;;;0.00;0.00;;;17.60;99.90;;;;;;5012607;28;20030;-88
2023/08/02 06:15:54;;;;;;;0.00;0.00;;;19.50;99.90;;;;;;4997149;28;20025;-88
2023/08/02 06:18:20;;;;;;;0.00;0.00;;;;;;;;;;5008803;28;20038;-88
2023/08/02 06:20:46;;;;;;;0.00;0.00;;;17.70;99.90;;;;;;5027490;28;20039;-89
2023/08/02 06:23:12;;;;;;;0.00;0.00;;;;;;;;;;5032659;28;20116;-88
2023/08/02 06:25:38;;;;;;;0.00;0.00;;;;;;;;;;5015882;28;20061;-87
2023/08/02 06:28:03;;;;;;;0.00;0.00;;;17.90;99.90;;;;;;5020227;28;20033;-88
2023/08/02 06:30:29;;;;;;;0.00;0.00;;;18.20;99.90;;;;;;5013748;28;20363;-87
2023/08/02 06:32:54;;;;;;;0.00;0.00;;;19.10;99.90;;;;;;5022606;28;20482;-89
2023/08/02 06:35:20;;;;;;;0.00;0.00;;;18.30;99.90;;;;;;5032657;28;20021;-87
2023/08/02 06:37:46;;;;;;;0.00;0.00;;;18.30;99.90;;;;;;5032980;28;20021;-88
2023/08/02 06:40:12;;;;;;;0.00;0.00;;;;;;;;;;5032574;28;20029;-87
2023/08/02 06:42:37;;;;;;;0.00;0.00;;;18.50;99.90;;;;;;5022770;28;20022;-89
2023/08/02 06:45:03;;;;;;;0.00;0.00;;;18.50;99.90;;;;;;5012077;28;20068;-88
2023/08/02 06:47:29;;;;;;;0.00;0.00;;;18.60;99.90;;;;;;5019595;28;20034;-88
2023/08/02 06:49:55;;;;;;;0.00;0.00;;;;;;;;;;5006692;28;20017;-89
2023/08/02 06:52:21;;;;;;;0.00;0.00;;;;;;;;;;5011004;28;20532;-88
2023/08/02 06:54:50;;;;;;;0.00;0.00;;;19.00;99.90;;;;;;5009448;28;20549;-87
2023/08/02 06:57:16;;;;;;;;;;;19.10;99.90;;;;;;5013953;28;20029;-87
2023/08/02 06:59:42;;;;;;;0.00;0.00;;;;;;;;;;5008408;28;19959;-89
2023/08/02 07:02:07;;;;;;;0.00;0.00;;;19.20;99.90;;;;;;5010883;28;20503;-89
2023/08/02 07:04:33;;;;;;;0.00;0.00;;;;;;;;;;5005073;28;20042;-89
2023/08/02 07:06:59;;;;;;;0.00;0.00;;;19.10;99.90;;;;;;5006510;28;20113;-89
2023/08/02 07:09:27;;;;;;;0.00;0.00;;;19.10;99.90;;;;;;4996581;28;20152;-84
2023/08/02 07:11:53;;;;;;;0.00;0.00;;;19.20;99.90;;;;;;5001169;28;20091;-87
2023/08/02 07:14:18;;;;;;;0.00;0.00;;;19.30;99.90;;;;;;5008329;28;20021;-88
2023/08/02 07:16:44;;;;;;;0.00;0.00;;;;;;;;;;5004615;28;20034;-90
2023/08/02 07:19:10;;;;;;;0.00;0.00;;;;;;;;;;5002330;28;20073;-88
2023/08/02 07:21:38;;;;;;;0.00;0.00;;;19.30;99.90;;;;;;4997108;28;20034;-88
2023/08/02 07:24:03;;;;;;;0.00;0.00;;;19.30;99.90;;;;;;5007158;28;20495;-88
2023/08/02 07:26:29;;;;;;;0.00;0.00;;;;;;;;;;5007070;28;20037;-88
2023/08/02 07:28:55;;;;;;;0.00;0.00;;;;;;;;;;5006138;28;20022;-90
2023/08/02 07:31:21;;;;;;;0.00;0.00;;;;;;;;;;5011414;28;20076;-89
2023/08/02 07:33:47;;;;;;;0.00;0.00;;;;;;;;;;5006036;28;20037;-88
2023/08/02 07:36:15;;;;;;;0.00;0.00;;;20.10;99.90;;;;;;5010328;28;20034;-90
2023/08/02 07:38:41;;;;;;;0.00;0.00;;;20.10;99.90;;;;;;5002342;28;20030;-87
2023/08/02 07:41:07;;;;;;;0.00;0.00;;;;;;;;;;5006594;28;20395;-89
2023/08/02 07:43:33;;;;;;;0.00;0.00;;;;;;;;;;5011667;28;20037;-89
2023/08/02 07:45:59;;;;;;;0.00;0.00;;;20.00;99.90;;;;;;5003552;28;20024;-88
2023/08/02 07:48:24;;;;;;;0.00;0.00;;;20.00;99.90;;;;;;5004861;28;20029;-88
2023/08/02 07:50:50;;;;;;;0.00;0.00;;;;;;;;;;5001925;28;20022;-89
2023/08/02 07:53:22;;;;;;;0.00;0.00;;;20.40;99.90;;;;;;5013904;28;20040;-89
2023/08/02 07:55:48;;;;;;;0.00;0.00;;;20.40;99.90;;;;;;4991291;28;20030;-89
2023/08/02 07:58:16;;;;;;;0.00;0.00;;;20.70;99.90;;;;;;4998413;28;20033;-89
2023/08/02 08:00:42;;;;;;;0.00;0.00;;;21.40;99.90;;;;;;5008260;28;20022;-88
2023/08/02 08:03:07;;;;;;;0.00;0.00;;;;;;;;;;5010457;28;20547;-86
2023/08/02 08:05:33;;;;;;;0.00;0.00;;;;;;;;;;5007407;28;20438;-87
2023/08/02 08:07:59;;;;;;;0.00;0.00;;;;;;;;;;5003157;28;20058;-88
2023/08/02 08:10:25;;;;;;;0.00;0.00;;;20.90;99.90;;;;;;5008236;28;20036;-86
2023/08/02 08:12:51;;;;;;;0.00;0.00;;;20.70;99.90;;;;;;5006881;28;20026;-86
2023/08/02 08:15:17;;;;;;;0.00;0.00;;;20.50;99.90;;;;;;4993998;28;20048;-88
2023/08/02 08:17:42;;;;;;;0.00;0.00;;;20.50;99.90;;;;;;5007278;28;20483;-91
2023/08/02 08:20:09;;;;;;;0.00;0.00;;;20.30;99.90;;;;;;5005688;28;20113;-87
2023/08/02 08:22:34;;;;;;;0.00;0.00;;;20.00;99.90;;;;;;4998980;28;20072;-89
2023/08/02 08:25:00;;;;;;;0.00;0.00;;;20.10;99.90;;;;;;5005174;28;20065;-85
2023/08/02 08:27:26;;;;;;;0.00;0.00;;;;;;;;;;5006595;28;20018;-87
2023/08/02 08:29:52;;;;;;;0.00;0.00;;;;;;;;;;5010009;28;20017;-88
2023/08/02 08:32:18;;;;;;;0.00;0.00;;;;;;;;;;5007169;28;20022;-88
2023/08/02 08:34:43;;;;;;;0.00;0.00;;;19.50;99.90;;;;;;5000489;28;20110;-88
2023/08/02 08:37:09;;;;;;;0.00;0.00;;;;;;;;;;5004803;28;20061;-87
2023/08/02 08:39:37;;;;;;;0.00;0.00;;;19.60;99.90;;;;;;5006825;28;20483;-89
2023/08/02 08:42:07;;;;;;;0.00;0.00;;;19.40;99.90;;;;;;5012296;28;20017;-88
2023/08/02 08:44:36;;;;;;;0.00;0.00;;;19.50;99.90;;;;;;5014261;28;20101;-88
2023/08/02 08:47:03;;;;;;;0.00;0.00;;;19.80;99.90;;;;;;5008220;28;20106;-87
2023/08/02 08:49:29;;;;;;;0.00;0.00;;;19.70;99.90;;;;;;5017941;28;20076;-88
2023/08/02 08:51:57;;;;;;;0.00;0.00;;;19.90;99.90;;;;;;5006836;28;20022;-88
2023/08/02 08:54:25;;;;;;;0.00;0.00;;;20.00;99.90;;;;;;5005009;28;20048;-87
2023/08/02 08:56:52;;;;;;;0.00;0.00;;;20.00;99.90;;;;;;5018434;28;20494;-87
2023/08/02 08:59:18;;;;;;;0.00;0.00;;;20.00;99.90;;;;;;5010415;28;20073;-88
2023/08/02 09:01:45;;;;;;;0.00;0.00;;;20.10;99.90;;;;;;5008833;28;20482;-87
2023/08/02 09:04:10;;;;;;;0.00;0.00;;;20.60;99.90;;;;;;5005270;28;20022;-88
2023/08/02 09:06:36;;;;;;;0.00;0.00;;;;;;;;;;5005450;28;20465;-88
2023/08/02 09:09:03;;;;;;;0.00;0.00;;;;;;;;;;5006752;28;20057;-88
2023/08/02 09:11:29;;;;;;;0.00;0.00;;;20.70;99.90;;;;;;5009831;28;20014;-87
2023/08/02 09:14:17;;;;;;;0.00;0.00;;;20.40;99.90;;;;;;5012310;28;20026;-87
2023/08/02 09:17:02;;;;;;;0.00;0.00;;;20.40;99.90;;;;;;5002607;28;20278;-87
2023/08/02 09:19:34;;;;;;;0.00;0.00;;;20.60;99.90;;;;;;5005339;28;20368;-89
2023/08/02 09:22:14;;;;;;;0.00;0.00;;;20.60;99.90;;;;;;5009019;28;20022;-88
2023/08/02 09:24:42;;;;;;;0.00;0.00;;;20.60;99.90;;;;;;5008061;28;20026;-87
2023/08/02 09:27:13;;;;;;;0.00;0.00;;;20.50;99.90;;;;;;5008262;28;20022;-89
2023/08/02 09:29:52;;;;;;;0.00;0.00;;;21.90;99.90;;;;;;5006729;28;20030;-87
2023/08/02 09:32:20;;;;;;;0.00;0.00;;;20.30;99.90;;;;;;5012333;28;20022;-89
2023/08/02 09:34:48;;;;;;;0.00;0.00;;;20.40;99.90;;;;;;5015557;28;20026;-90
2023/08/02 09:37:15;;;;;;;0.00;0.00;;;21.60;99.90;;;;;;5014382;28;20427;-88
2023/08/02 09:39:51;;;;;;;0.00;0.00;;;20.20;99.90;;;;;;5001800;28;20479;-89
2023/08/02 09:42:21;;;;;;;0.00;0.00;;;20.20;99.90;;;;;;5013243;28;20072;-88
2023/08/02 09:44:54;;;;;;;0.00;0.00;;;19.90;99.90;;;;;;4997067;28;20487;-88
2023/08/02 09:47:20;;;;;;;0.00;0.00;;;19.80;99.90;;;;;;5004693;28;20014;-88
2023/08/02 09:50:01;;;;;;;0.00;0.00;;;19.80;99.90;;;;;;5014976;28;20456;-89
2023/08/02 09:52:26;;;;;;;0.00;0.00;;;19.70;99.90;;;;;;5000744;28;20049;-90
2023/08/02 09:54:53;;;;;;;0.00;0.00;;;20.50;99.90;;;;;;5012586;28;20041;-88
2023/08/02 09:57:24;;;;;;;0.00;0.00;;;20.90;99.90;;;;;;5010302;28;20037;-88
2023/08/02 09:59:51;;;;;;;0.00;0.00;;;21.00;99.90;;;;;;5015310;28;20121;-90
2023/08/02 10:02:18;;;;;;;0.00;0.00;;;19.80;99.90;;;;;;5013112;28;20592;-90
2023/08/02 10:04:44;;;;;;;0.00;0.00;;;20.50;99.90;;;;;;5003673;28;20057;-89
2023/08/02 10:07:12;;;;;;;0.00;0.00;;;19.80;99.90;;;;;;5014960;28;20076;-89
2023/08/02 10:09:38;;;;;;;0.00;0.00;;;20.10;99.90;;;;;;5018350;28;20022;-88
2023/08/02 10:12:09;;;;;;;0.00;0.00;;;19.70;99.90;;;;;;5018210;28;20020;-88
2023/08/02 10:14:36;;;;;;;0.00;0.00;;;20.90;99.90;;;;;;5005184;28;20018;-89
2023/08/02 10:17:02;;;;;;;0.00;0.00;;;19.90;99.90;;;;;;5009868;28;20119;-89
2023/08/02 10:19:29;;;;;;;0.00;0.00;;;19.90;99.90;;;;;;5010521;28;20029;-89
2023/08/02 10:21:58;;;;;;;0.00;0.00;;;21.10;99.90;;;;;;5010287;28;20024;-89
2023/08/02 10:24:26;;;;;;;0.00;0.00;;;19.70;99.90;;;;;;5015299;28;20030;-90
2023/08/02 10:26:58;;;;;;;0.00;0.00;;;20.30;99.90;;;;;;5013618;28;20022;-90
2023/08/02 10:29:28;;;;;;;0.00;0.00;;;21.20;99.90;;;;;;5007242;28;20065;-89
2023/08/02 10:31:54;;;;;;;0.00;0.00;;;19.80;99.90;;;;;;5001256;28;20479;-89
2023/08/02 10:34:35;;;;;;;0.00;0.00;;;19.70;99.90;;;;;;5010765;28;20045;-89
2023/08/02 10:37:00;;;;;;;0.00;0.00;;;19.70;99.90;;;;;;5013489;28;20081;-89
2023/08/02 10:39:45;;;;;;;0.00;0.00;;;19.40;99.90;;;;;;5010271;28;20026;-89
2023/08/02 10:42:21;;;;;;;0.00;0.00;;;19.40;99.90;;;;;;5002218;28;20087;-89
2023/08/02 10:44:55;;;;;;;0.00;0.00;;;19.40;99.90;;;;;;5012720;28;20122;-89
2023/08/02 10:47:24;;;;;;;0.00;0.00;;;19.50;99.90;;;;;;5013400;28;20029;-89
2023/08/02 10:49:51;;;;;;;0.00;0.00;;;19.60;99.90;;;;;;5012668;28;20024;-90
2023/08/02 10:52:33;;;;;;;0.00;0.00;;;19.70;99.90;;;;;;5011873;28;20377;-88
2023/08/02 10:55:09;;;;;;;0.00;0.00;;;19.60;99.90;;;;;;5007081;28;20048;-90
2023/08/02 10:57:36;;;;;;;0.00;0.00;;;19.90;99.90;;;;;;5008621;28;20022;-89
2023/08/02 11:00:32;;;;;;;0.00;0.00;;;19.90;99.90;;;;;;5013293;28;20026;-90
2023/08/02 11:02:59;;;;;;;0.00;0.00;;;19.80;99.90;;;;;;5008301;28;20101;-89
2023/08/02 11:05:39;;;;;;;0.00;0.00;;;19.90;99.90;;;;;;5024623;28;20022;-88
2023/08/02 11:08:07;;;;;;;0.00;0.00;;;20.00;99.90;;;;;;5023012;28;20383;-89
2023/08/02 11:10:54;;;;;;;0.00;0.00;;;19.90;99.90;;;;;;5017153;28;20025;-89
2023/08/02 11:13:21;;;;;;;0.00;0.00;;;20.90;99.90;;;;;;5018189;28;20029;-88
2023/08/02 11:15:47;;;;;;;0.00;0.00;;;20.20;99.90;;;;;;5007638;28;20041;-89
2023/08/02 11:18:12;;;;;;;0.00;0.00;;;20.40;99.90;;;;;;5017958;28;20494;-90
2023/08/02 11:20:39;;;;;;;0.00;0.00;;;;;;;;;;5011431;28;20061;-89
2023/08/02 11:23:24;;;;;;;0.00;0.00;;;20.60;99.90;;;;;;5012015;28;20471;-88
2023/08/02 11:25:50;;;;;;;0.00;0.00;;;21.20;99.90;;;;;;5006515;28;20021;-89
2023/08/02 11:28:16;;;;;;;0.00;0.00;;;21.00;99.90;;;;;;5012288;28;20117;-88
2023/08/02 11:30:42;;;;;;;0.00;0.00;;;20.90;99.90;;;;;;5004213;28;20164;-90
2023/08/02 11:33:07;;;;;;;0.00;0.00;;;22.10;99.90;;;;;;5016306;28;20379;-88
2023/08/02 11:35:33;;;;;;;0.00;0.00;;;;;;;;;;5009865;28;20026;-89
2023/08/02 11:38:00;;;;;;;0.00;0.00;;;;;;;;;;5008467;28;20037;-87
2023/08/02 11:40:37;;;;;;;0.00;0.00;;;21.30;99.90;;;;;;5013599;28;20014;-87
2023/08/02 11:43:03;;;;;;;0.00;0.00;;;21.50;99.90;;;;;;5016290;28;20027;-89
2023/08/02 11:45:33;;;;;;;0.00;0.00;;;22.00;99.90;;;;;;5011259;28;20069;-87
2023/08/02 11:47:58;;;;;;;0.00;0.00;;;21.90;99.90;;;;;;5011288;28;20022;-88
2023/08/02 11:50:25;;;;;;;0.00;0.00;;;22.20;99.90;;;;;;5017124;28;20049;-89
2023/08/02 11:52:52;;;;;;;0.00;0.00;;;21.90;99.90;;;;;;5014901;28;20105;-89
2023/08/02 11:55:21;;;;;;;0.00;0.00;;;22.50;99.90;;;;;;5022467;28;20091;-88
2023/08/02 11:57:47;;;;;;;;;;;22.40;99.90;;;;;;5012932;28;20113;-89
2023/08/02 12:00:13;;;;;;;0.00;0.00;;;22.30;99.90;;;;;;5017989;28;19909;-89
2023/08/02 12:02:39;;;;;;;0.00;0.00;;;22.00;99.90;;;;;;5013552;28;20019;-89
2023/08/02 12:05:08;;;;;;;0.00;0.00;;;;;;;;;;5012427;28;20031;-88
2023/08/02 12:07:34;;;;;;;0.00;0.00;;;;;;;;;;5012185;28;20354;-88
2023/08/02 12:10:04;;;;;;;0.00;0.00;;;21.40;99.90;;;;;;5017358;28;20029;-87
2023/08/02 12:12:35;;;;;;;0.00;0.00;;;22.50;99.90;;;;;;5013640;28;20025;-89
2023/08/02 12:15:14;;;;;;;0.00;0.00;;;22.10;99.90;;;;;;5021379;28;20045;-89
2023/08/02 12:17:40;;;;;;;0.00;0.00;;;21.50;99.90;;;;;;5002731;28;20040;-88
2023/08/02 12:20:06;;;;;;;0.00;0.00;;;23.90;99.90;;;;;;5011870;28;20405;-86
2023/08/02 12:22:49;;;;;;;0.00;0.00;;;21.70;99.90;;;;;;5011163;28;20057;-87
2023/08/02 12:25:15;;;;;;;0.00;0.00;;;21.50;99.90;;;;;;5015181;28;20040;-88
2023/08/02 12:27:41;;;;;;;0.00;0.00;;;;;;;;;;5010826;28;20116;-89
2023/08/02 12:30:15;;;;;;;0.00;0.00;;;21.40;99.90;;;;;;5018174;28;20542;-88
2023/08/02 12:32:41;;;;;;;0.00;0.00;;;21.40;99.90;;;;;;5018437;28;20018;-89
2023/08/02 12:35:08;;;;;;;0.00;0.00;;;23.00;99.90;;;;;;5023827;28;20383;-86
2023/08/02 12:37:35;;;;;;;0.00;0.00;;;21.40;99.90;;;;;;5010382;28;20057;-88
2023/08/02 12:40:00;;;;;;;0.00;0.00;;;21.80;99.90;;;;;;5009884;28;20034;-89
2023/08/02 12:42:26;;;;;;;0.00;0.00;;;21.30;99.90;;;;;;5008399;28;20038;-87
2023/08/02 12:44:51;;;;;;;0.00;0.00;;;21.40;99.90;;;;;;5018113;28;20018;-87
2023/08/02 12:47:17;;;;;;;0.00;0.00;;;;;;;;;;5019878;28;20081;-88
2023/08/02 12:49:43;;;;;;;0.00;0.00;;;21.20;99.90;;;;;;5012683;28;20022;-88
2023/08/02 12:52:09;;;;;;;0.00;0.00;;;;;;;;;;5016691;28;20025;-89
2023/08/02 12:54:35;;;;;;;0.00;0.00;;;;;;;;;;5012996;28;20089;-88
2023/08/02 12:57:01;;;;;;;0.00;0.00;;;;;;;;;;5009460;28;20459;-89
2023/08/02 12:59:26;;;;;;;0.00;0.00;;;21.40;99.90;;;;;;5012050;28;21140;-88
2023/08/02 13:01:52;;;;;;;0.00;0.00;;;22.50;99.90;;;;;;5006493;28;20027;-86
2023/08/02 13:04:17;;;;;;;0.00;0.00;;;21.70;99.90;;;;;;5013856;28;20034;-86
2023/08/02 13:06:43;;;;;;;0.00;0.00;;;;;;;;;;5009212;28;20075;-89
2023/08/02 13:09:09;;;;;;;0.00;0.00;;;22.40;99.90;;;;;;5004926;28;20432;-86
2023/08/02 13:11:35;;;;;;;0.00;0.00;;;;;;;;;;5006147;28;20486;-88
2023/08/02 13:14:00;;;;;;;0.00;0.00;;;22.40;99.90;;;;;;5006545;28;20026;-87
2023/08/02 13:16:26;;;;;;;0.00;0.00;;;;;;;;;;5018534;28;20041;-88
2023/08/02 13:18:52;;;;;;;0.00;0.00;;;;;;;;;;5011673;28;20462;-89
2023/08/02 13:21:19;;;;;;;0.00;0.00;;;;;;;;;;5016120;28;20036;-85
2023/08/02 13:23:47;;;;;;;0.00;0.00;;;22.90;99.90;;;;;;5009406;28;20494;-88